Time;durP1;ratioP1;P1;durP2;ratioP2;P2;SDS_P1;SDS_P2;PMS_P1;PMS_P2;Temp;Humidity;BMP_temperature;BMP_pressure;BME280_temperature;BME280_humidity;BME280_pressure;Samples;Min_cycle;Max_cycle;Signal;HPM_P1;HPM_P2
2022/02/10 00:08:15;;;;;;;;;;;154.50;2252.80;;;;;;5116332;28;20011;-83
2022/02/10 00:20:43;;;;;;;;;;;154.00;2252.80;;;;;;5116658;28;19912;-80
2022/02/10 00:23:24;;;;;;;;;;;154.00;2252.80;;;;;;5116360;28;19911;-83
2022/02/10 00:36:40;;;;;;;;;;;154.10;2252.80;;;;;;5113169;28;19935;-84
2022/02/10 00:39:32;;;;;;;;;;;154.20;2252.80;;;;;;5097261;28;19926;-80
2022/02/10 00:41:58;;;;;;;;;;;154.30;2252.80;;;;;;5094932;28;19916;-83
2022/02/10 00:44:24;;;;;;;;;;;154.50;2252.80;;;;;;5115777;28;19912;-82
2022/02/10 00:46:50;;;;;;;;;;;154.30;2252.80;;;;;;5097230;28;19920;-80
2022/02/10 00:49:15;;;;;;;;;;;154.20;2252.80;;;;;;5115536;28;20271;-82
2022/02/10 00:51:41;;;;;;;;;;;154.10;2252.80;;;;;;5114713;28;19918;-84
2022/02/10 00:54:07;;;;;;;;;;;154.10;2252.80;;;;;;5115404;28;19912;-84
2022/02/10 00:56:33;;;;;;;;;;;154.10;2252.80;;;;;;5115065;28;19915;-81
2022/02/10 00:59:22;;;;;;;;;;;154.20;2252.80;;;;;;5097157;28;19915;-84
2022/02/10 01:12:45;;;;;;;;;;;154.10;2252.80;;;;;;5113842;28;20279;-84
2022/02/10 01:31:36;;;;;;;;;;;154.30;2252.80;;;;;;5110222;28;19973;-80
2022/02/10 01:34:02;;;;;;;;;;;153.90;2252.80;;;;;;5096307;28;19912;-81
2022/02/10 01:36:28;;;;;;;;;;;154.30;2252.80;;;;;;5096275;28;19960;-82
2022/02/10 01:38:54;;;;;;;;;;;153.90;2252.80;;;;;;5114249;28;19912;-81
2022/02/10 02:03:41;;;;;;;;;;;128.90;2252.80;;;;;;5010399;28;19975;-83
2022/02/10 02:06:11;;;;;;;;;;;128.90;2252.80;;;;;;5029267;28;19913;-84
2022/02/10 02:08:39;;;;;;;;;;;128.80;2252.80;;;;;;4996304;28;20439;-87
2022/02/10 02:11:05;;;;;;;;;;;128.80;2252.80;;;;;;5012704;28;19960;-79
2022/02/10 02:13:31;;;;;;;;;;;128.90;2252.80;;;;;;5012550;28;20274;-79
2022/02/10 02:15:57;;;;;;;;;;;128.90;2252.80;;;;;;5012153;28;19910;-83
2022/02/10 02:18:23;;;;;;;;;;;128.80;2252.80;;;;;;5011398;28;19909;-81
2022/02/10 02:20:50;;;;;;;;;;;128.70;2252.80;;;;;;5009836;28;20405;-82
2022/02/10 02:23:16;;;;;;;;;;;128.60;2252.80;;;;;;5019520;28;20361;-83
2022/02/10 02:25:42;;;;;;;;;;;128.50;2252.80;;;;;;5034611;28;19919;-83
2022/02/10 02:28:10;;;;;;;;;;;128.60;2252.80;;;;;;5051172;28;19943;-84
2022/02/10 02:31:02;;;;;;;;;;;128.70;2252.80;;;;;;5051120;28;19961;-80
2022/02/10 02:36:45;;;;;;;;;;;128.60;2252.80;;;;;;5070252;28;20412;-85
2022/02/10 02:39:15;;;;;;;;;;;128.50;2252.80;;;;;;5111874;28;20287;-83
2022/02/10 03:08:57;;;;;;;;;;;128.20;2252.80;;;;;;5110884;28;19931;-82
2022/02/10 03:11:23;;;;;;;;;;;128.30;2252.80;;;;;;5094998;28;19915;-81
2022/02/10 03:13:58;;;;;;;;;;;128.20;2252.80;;;;;;5113390;28;19915;-84
2022/02/10 03:17:30;;;;;;;;;;;128.10;2252.80;;;;;;5098772;28;19914;-76
2022/02/10 04:05:36;;;;;;;;;;;103.30;2227.20;;;;;;5093794;28;19962;-82
2022/02/10 04:11:15;;;;;;;;;;;128.10;2252.80;;;;;;5092048;28;20291;-83
2022/02/10 04:16:27;;;;;;;;;;;128.10;2252.80;;;;;;5093632;28;19919;-83
2022/02/10 05:04:40;;;;;;;;;;;102.90;2227.20;;;;;;4965645;28;19942;-83
2022/02/10 05:07:58;;;;;;;;;;;102.90;2227.20;;;;;;4962963;28;19923;-78
2022/02/10 05:23:15;;;;;;;;;;;102.60;2227.20;;;;;;5039479;28;20280;-79
2022/02/10 05:34:01;;;;;;;;;;;102.60;2227.20;;;;;;4984579;28;19910;-84
2022/02/10 05:36:31;;;;;;;;;;;102.60;2227.20;;;;;;5011944;28;19921;-78
2022/02/10 05:39:10;;;;;;;;;;;102.50;2227.20;;;;;;5012013;28;19921;-84
2022/02/10 06:54:23;;;;;;;;;;;103.20;2227.20;;;;;;5115570;28;19947;-86
2022/02/10 08:50:43;;;;;;;;;;;205.50;2252.80;;;;;;5094921;28;19965;-80
2022/02/10 09:03:37;;;;;;;;;;;230.50;2252.80;;;;;;5108643;28;19912;-77
2022/02/10 09:57:10;;;;;;;;;;;282.40;2278.40;;;;;;5113897;28;19951;-79
2022/02/10 10:00:07;;;;;;;;;;;282.50;2278.40;;;;;;5095655;28;19970;-84
2022/02/10 10:02:38;;;;;;;;;;;307.50;2304.00;;;;;;5093276;28;20283;-78
2022/02/10 10:21:32;;;;;;;;;;;332.80;2329.60;;;;;;5114602;28;20018;-82
2022/02/10 10:24:16;;;;;;;;;;;332.90;2329.60;;;;;;5095258;28;19938;-86
2022/02/10 10:57:22;;;;;;;;;;;359.10;2329.60;;;;;;4992046;28;20009;-80
2022/02/10 12:31:00;;;;;;;;;;;436.00;2150.40;;;;;;5116723;28;20295;-76
2022/02/10 13:34:43;;;;;;;;;;;435.60;2201.60;;;;;;5114397;28;19954;-77
2022/02/10 14:09:17;;;;;;;;;;;410.00;2278.40;;;;;;5114051;28;19930;-76
2022/02/10 14:17:07;;;;;;;;;;;409.90;2329.60;;;;;;5031387;28;20004;-78
2022/02/10 14:22:10;;;;;;;;;;;409.80;2304.00;;;;;;5031164;28;20346;-77
2022/02/10 14:27:21;;;;;;;;;;;409.80;2355.20;;;;;;5030922;28;20023;-77
2022/02/10 14:29:47;;;;;;;;;;;409.70;2355.20;;;;;;5030789;28;20370;-77
2022/02/10 14:32:16;;;;;;;;;;;409.70;2355.20;;;;;;5030697;28;20413;-77
2022/02/10 14:34:42;;;;;;;;;;;409.70;2355.20;;;;;;5030894;28;19916;-76
2022/02/10 15:21:01;;;;;;;;;;;384.00;2329.60;;;;;;5095725;28;19916;-77
2022/02/10 16:16:29;;;;;;;;;;;358.80;2329.60;;;;;;5094831;28;19915;-78
2022/02/10 16:18:03;;;;;;;;;;;358.90;2329.60;;;;;;5093778;28;20758;-78
2022/02/10 16:20:30;;;;;;;;;;;358.80;2329.60;;;;;;5076975;28;19909;-78
2022/02/10 16:23:05;;;;;;;;;;;358.80;2329.60;;;;;;5110004;28;19965;-78
2022/02/10 16:25:34;;;;;;;;;;;358.80;2329.60;;;;;;5077596;28;19999;-77
2022/02/10 16:28:10;;;;;;;;;;;358.80;2329.60;;;;;;5095547;28;20368;-77
2022/02/10 16:30:37;;;;;;;;;;;358.70;2329.60;;;;;;5077228;28;19916;-79
2022/02/10 16:33:03;;;;;;;;;;;358.60;2329.60;;;;;;5095534;28;19919;-76
2022/02/10 16:35:29;;;;;;;;;;;358.50;2329.60;;;;;;5095477;28;19916;-77
2022/02/10 16:37:55;;;;;;;;;;;358.40;2329.60;;;;;;5094834;28;20006;-78
2022/02/10 16:40:22;;;;;;;;;;;358.40;2329.60;;;;;;5095206;28;19916;-82
2022/02/10 16:42:48;;;;;;;;;;;333.70;2329.60;;;;;;5077055;28;19916;-79
2022/02/10 16:45:14;;;;;;;;;;;333.70;2329.60;;;;;;5076972;28;19912;-77
2022/02/10 16:47:40;;;;;;;;;;;333.70;2329.60;;;;;;5094739;28;19908;-78
2022/02/10 16:50:05;;;;;;;;;;;333.60;2329.60;;;;;;5094885;28;20009;-79
2022/02/10 16:52:37;;;;;;;;;;;333.60;2329.60;;;;;;5077239;28;19958;-80
2022/02/10 16:55:22;;;;;;;;;;;333.50;2329.60;;;;;;5111249;28;19991;-77
2022/02/10 16:58:07;;;;;;;;;;;333.50;2329.60;;;;;;5094898;28;19962;-77
2022/02/10 17:03:39;;;;;;;;;;;333.40;2329.60;;;;;;5095236;28;19919;-75
2022/02/10 17:17:46;;;;;;;;;;;308.00;2304.00;;;;;;5094708;28;19915;-75
2022/02/10 17:27:47;;;;;;;;;;;307.60;2304.00;;;;;;5094803;28;19919;-79
2022/02/10 17:44:15;;;;;;;;;;;307.20;2304.00;;;;;;5056784;28;20400;-78
2022/02/10 17:54:21;;;;;;;;;;;282.50;2278.40;;;;;;5062057;28;20273;-80
2022/02/10 17:56:48;;;;;;;;;;;282.30;2278.40;;;;;;5043897;28;19909;-78
2022/02/10 17:59:14;;;;;;;;;;;282.20;2278.40;;;;;;5053065;28;19908;-81
2022/02/10 18:01:42;;;;;;;;;;;282.20;2278.40;;;;;;5061835;28;20258;-84
2022/02/10 18:04:08;;;;;;;;;;;282.30;2278.40;;;;;;5065727;28;20372;-81
2022/02/10 18:06:39;;;;;;;;;;;282.30;2278.40;;;;;;5069772;28;20348;-84
2022/02/10 18:09:26;;;;;;;;;;;282.10;2278.40;;;;;;5093219;28;19939;-79
2022/02/10 18:12:53;;;;;;;;;;;282.10;2278.40;;;;;;5092806;28;19988;-86
2022/02/10 18:15:03;;;;;;;;;;;282.20;2278.40;;;;;;5092447;28;20280;-83
2022/02/10 18:17:34;;;;;;;;;;;282.20;2278.40;;;;;;5090479;28;19986;-79
2022/02/10 18:20:11;;;;;;;;;;;282.20;2278.40;;;;;;5075027;28;19908;-78
2022/02/10 18:23:14;;;;;;;;;;;282.20;2278.40;;;;;;5073925;28;19942;-79
2022/02/10 18:30:26;;;;;;;;;;;282.20;2278.40;;;;;;5093005;28;19912;-80
2022/02/10 19:10:17;;;;;;;;;;;282.00;2278.40;;;;;;5092998;28;19969;-76
2022/02/10 19:12:45;;;;;;;;;;;282.10;2278.40;;;;;;5074343;28;19967;-81
2022/02/10 19:18:07;;;;;;;;;;;282.10;2278.40;;;;;;5028524;28;20515;-79
2022/02/10 19:20:34;;;;;;;;;;;282.00;2278.40;;;;;;5013567;28;19913;-78
2022/02/10 19:23:00;;;;;;;;;;;281.80;2278.40;;;;;;5030332;28;19963;-80
2022/02/10 19:25:26;;;;;;;;;;;281.60;2278.40;;;;;;5014427;28;20385;-78
2022/02/10 19:27:52;;;;;;;;;;;256.60;2252.80;;;;;;5014399;28;19939;-81
2022/02/10 19:30:18;;;;;;;;;;;256.60;2252.80;;;;;;5031099;28;20048;-79
2022/02/10 19:33:00;;;;;;;;;;;256.60;2252.80;;;;;;5030772;28;19932;-81
2022/02/10 19:35:27;;;;;;;;;;;256.60;2252.80;;;;;;5030962;28;19996;-82
2022/02/10 19:37:57;;;;;;;;;;;256.60;2252.80;;;;;;5014300;28;19992;-81
2022/02/10 19:40:28;;;;;;;;;;;256.60;2252.80;;;;;;5030570;28;20297;-80
2022/02/10 19:42:55;;;;;;;;;;;256.50;2252.80;;;;;;5031235;28;19909;-79
2022/02/10 19:45:21;;;;;;;;;;;256.60;2252.80;;;;;;5014370;28;19909;-78
2022/02/10 19:47:48;;;;;;;;;;;256.60;2252.80;;;;;;5013987;28;20055;-78
2022/02/10 19:50:16;;;;;;;;;;;256.60;2252.80;;;;;;5014132;28;20360;-80
2022/02/10 19:52:44;;;;;;;;;;;256.50;2252.80;;;;;;5030813;28;20000;-80
2022/02/10 19:55:15;;;;;;;;;;;256.50;2252.80;;;;;;5079236;28;20004;-82
2022/02/10 19:57:41;;;;;;;;;;;256.40;2252.80;;;;;;5076809;28;19912;-81
2022/02/10 20:00:11;;;;;;;;;;;256.40;2252.80;;;;;;5078561;28;19908;-79
2022/02/10 20:02:36;;;;;;;;;;;256.40;2252.80;;;;;;5077725;28;19912;-80
2022/02/10 20:05:03;;;;;;;;;;;256.40;2252.80;;;;;;5078316;28;20057;-81
2022/02/10 20:07:29;;;;;;;;;;;256.40;2252.80;;;;;;5095859;28;19920;-75
2022/02/10 20:09:54;;;;;;;;;;;256.40;2252.80;;;;;;5078119;28;19935;-76
2022/02/10 20:12:20;;;;;;;;;;;256.40;2252.80;;;;;;5096209;28;20282;-82
2022/02/10 20:14:50;;;;;;;;;;;256.30;2252.80;;;;;;5078253;28;19909;-81
2022/02/10 20:17:15;;;;;;;;;;;256.10;2252.80;;;;;;5095487;28;19959;-80
2022/02/10 20:19:41;;;;;;;;;;;256.00;2252.80;;;;;;5111852;28;19951;-82
2022/02/10 20:22:10;;;;;;;;;;;256.00;2252.80;;;;;;5077943;28;19951;-82
2022/02/10 20:24:36;;;;;;;;;;;231.30;2252.80;;;;;;5111827;28;19908;-79
2022/02/10 20:27:02;;;;;;;;;;;231.30;2252.80;;;;;;5078037;28;20379;-81
2022/02/10 20:29:28;;;;;;;;;;;231.10;2252.80;;;;;;5095952;28;19954;-79
2022/02/10 20:31:54;;;;;;;;;;;231.00;2252.80;;;;;;5077069;28;20031;-81
2022/02/10 20:34:19;;;;;;;;;;;231.00;2252.80;;;;;;5076913;28;20253;-81
2022/02/10 20:36:45;;;;;;;;;;;231.10;2252.80;;;;;;5077374;28;19916;-82
2022/02/10 20:39:16;;;;;;;;;;;231.00;2252.80;;;;;;5095262;28;19912;-82
2022/02/10 20:41:42;;;;;;;;;;;230.90;2252.80;;;;;;5092666;28;19953;-80
2022/02/10 20:44:08;;;;;;;;;;;230.90;2252.80;;;;;;5110974;28;19912;-82
2022/02/10 20:46:41;;;;;;;;;;;230.90;2252.80;;;;;;5076875;28;19999;-82
2022/02/10 20:49:15;;;;;;;;;;;230.90;2252.80;;;;;;5074769;28;19991;-81
2022/02/10 20:51:40;;;;;;;;;;;230.90;2252.80;;;;;;5110019;28;20364;-80
2022/02/10 20:54:06;;;;;;;;;;;231.00;2252.80;;;;;;5076818;28;19908;-77
2022/02/10 20:56:31;;;;;;;;;;;231.00;2252.80;;;;;;5076514;28;19939;-81
2022/02/10 20:58:59;;;;;;;;;;;231.10;2252.80;;;;;;5076602;28;19975;-76
2022/02/10 21:01:26;;;;;;;;;;;231.00;2252.80;;;;;;5111214;28;19996;-82
2022/02/10 21:03:51;;;;;;;;;;;231.00;2252.80;;;;;;5076563;28;20002;-79
2022/02/10 21:09:08;;;;;;;;;;;231.00;2252.80;;;;;;5091079;28;19979;-78
2022/02/10 21:11:34;;;;;;;;;;;231.00;2252.80;;;;;;5093898;28;19920;-75
2022/02/10 21:14:00;;;;;;;;;;;231.10;2252.80;;;;;;5075335;28;19966;-77
2022/02/10 21:16:26;;;;;;;;;;;231.00;2252.80;;;;;;5110095;28;20280;-77
2022/02/10 21:18:52;;;;;;;;;;;231.00;2252.80;;;;;;5076397;28;19908;-82
2022/02/10 21:21:18;;;;;;;;;;;231.00;2252.80;;;;;;5093985;28;19992;-79
2022/02/10 21:26:11;;;;;;;;;;;231.00;2252.80;;;;;;5094432;28;19969;-82
2022/02/10 21:28:40;;;;;;;;;;;231.00;2252.80;;;;;;5110541;28;19919;-79
2022/02/10 21:31:07;;;;;;;;;;;231.10;2252.80;;;;;;5094464;28;19942;-82
2022/02/10 21:38:43;;;;;;;;;;;231.10;2252.80;;;;;;5094210;28;20007;-79
2022/02/10 22:00:25;;;;;;;;;;;231.10;2252.80;;;;;;5094386;28;20432;-78
2022/02/10 22:18:53;;;;;;;;;;;230.90;2252.80;;;;;;5093975;28;19919;-78
2022/02/10 22:21:29;;;;;;;;;;;230.80;2252.80;;;;;;5075658;28;20496;-77
2022/02/10 22:23:55;;;;;;;;;;;230.80;2252.80;;;;;;5076176;28;19916;-76
2022/02/10 22:26:27;;;;;;;;;;;230.80;2252.80;;;;;;5075895;28;19908;-76
2022/02/10 22:31:29;;;;;;;;;;;231.00;2252.80;;;;;;5093826;28;20427;-81
2022/02/10 22:36:27;;;;;;;;;;;230.90;2252.80;;;;;;5093751;28;19916;-81
2022/02/10 22:38:57;;;;;;;;;;;231.00;2252.80;;;;;;5092888;28;20326;-78
2022/02/10 22:41:22;;;;;;;;;;;231.10;2252.80;;;;;;5074906;28;20002;-81
2022/02/10 22:43:50;;;;;;;;;;;231.30;2252.80;;;;;;5074597;28;19959;-80
2022/02/10 22:46:16;;;;;;;;;;;256.00;2252.80;;;;;;5075062;28;19915;-84
2022/02/10 22:48:44;;;;;;;;;;;256.10;2252.80;;;;;;5092790;28;19947;-81
2022/02/10 22:51:10;;;;;;;;;;;256.10;2252.80;;;;;;5092231;28;19924;-79
2022/02/10 22:53:36;;;;;;;;;;;256.10;2252.80;;;;;;5075045;28;20368;-80
2022/02/10 22:56:02;;;;;;;;;;;231.20;2252.80;;;;;;5092481;28;19914;-80
2022/02/10 22:58:28;;;;;;;;;;;231.00;2252.80;;;;;;5075113;28;19965;-80
2022/02/10 23:00:54;;;;;;;;;;;230.90;2252.80;;;;;;5074729;28;19954;-81
2022/02/10 23:03:20;;;;;;;;;;;231.00;2252.80;;;;;;5075240;28;19948;-83
2022/02/10 23:05:47;;;;;;;;;;;231.00;2252.80;;;;;;5075270;28;19915;-83
2022/02/10 23:08:13;;;;;;;;;;;230.90;2252.80;;;;;;5092919;28;19999;-80
2022/02/10 23:10:44;;;;;;;;;;;231.00;2252.80;;;;;;5075461;28;20009;-78
2022/02/10 23:13:10;;;;;;;;;;;231.10;2252.80;;;;;;5075128;28;19966;-80
2022/02/10 23:15:39;;;;;;;;;;;231.10;2252.80;;;;;;5093276;28;19909;-80
2022/02/10 23:18:09;;;;;;;;;;;231.20;2252.80;;;;;;5075110;28;19915;-82
2022/02/10 23:20:34;;;;;;;;;;;231.20;2252.80;;;;;;5093404;28;19914;-82
2022/02/10 23:23:00;;;;;;;;;;;231.20;2252.80;;;;;;5075109;28;20334;-82
2022/02/10 23:25:27;;;;;;;;;;;231.30;2252.80;;;;;;5093150;28;19916;-79
2022/02/10 23:27:53;;;;;;;;;;;231.30;2252.80;;;;;;5075585;28;19914;-77
2022/02/10 23:30:21;;;;;;;;;;;231.30;2252.80;;;;;;5075021;28;20275;-80
2022/02/10 23:32:47;;;;;;;;;;;231.30;2252.80;;;;;;5077784;28;20090;-81
2022/02/10 23:35:40;;;;;;;;;;;231.30;2252.80;;;;;;5078708;28;20428;-82
2022/02/10 23:37:58;;;;;;;;;;;231.20;2252.80;;;;;;5096692;28;19912;-81
2022/02/10 23:40:31;;;;;;;;;;;231.30;2252.80;;;;;;5078773;28;19912;-81
2022/02/10 23:42:57;;;;;;;;;;;231.30;2252.80;;;;;;5079035;28;20033;-77
2022/02/10 23:45:26;;;;;;;;;;;231.30;2252.80;;;;;;5079056;28;19936;-83
2022/02/10 23:47:53;;;;;;;;;;;231.20;2252.80;;;;;;5078418;28;19908;-78
2022/02/10 23:50:25;;;;;;;;;;;231.00;2252.80;;;;;;5078764;28;19908;-81
2022/02/10 23:52:56;;;;;;;;;;;231.00;2252.80;;;;;;5078965;28;19912;-80
2022/02/10 23:55:30;;;;;;;;;;;231.10;2252.80;;;;;;5078511;28;19957;-83
2022/02/10 23:58:12;;;;;;;;;;;231.10;2252.80;;;;;;5078685;28;19908;-77
